sensor_id;sensor_type;location;lat;lon;timestamp;pressure;altitude;pressure_sealevel;temperature;humidity
25510;BME280;13413;52.336;21.200;2022-07-23T00:01:52;100442.25;;;25.99;54.83
25510;BME280;13413;52.336;21.200;2022-07-23T00:05:11;100439.33;;;25.95;54.92
25510;BME280;13413;52.336;21.200;2022-07-23T00:08:31;100442.61;;;25.96;55.01
25510;BME280;13413;52.336;21.200;2022-07-23T00:11:51;100441.23;;;25.91;55.03
25510;BME280;13413;52.336;21.200;2022-07-23T00:15:11;100442.71;;;25.82;55.24
25510;BME280;13413;52.336;21.200;2022-07-23T00:18:31;100442.29;;;25.74;55.37
25510;BME280;13413;52.336;21.200;2022-07-23T00:21:50;100446.48;;;25.72;55.42
25510;BME280;13413;52.336;21.200;2022-07-23T00:25:09;100445.61;;;25.69;55.45
25510;BME280;13413;52.336;21.200;2022-07-23T00:28:30;100447.14;;;25.61;55.67
25510;BME280;13413;52.336;21.200;2022-07-23T00:31:50;100447.95;;;25.58;55.82
25510;BME280;13413;52.336;21.200;2022-07-23T00:35:10;100445.64;;;25.52;55.91
25510;BME280;13413;52.336;21.200;2022-07-23T00:38:31;100447.75;;;25.49;55.97
25510;BME280;13413;52.336;21.200;2022-07-23T00:41:51;100447.42;;;25.41;56.17
25510;BME280;13413;52.336;21.200;2022-07-23T00:45:11;100447.31;;;25.32;56.37
25510;BME280;13413;52.336;21.200;2022-07-23T00:48:32;100450.13;;;25.24;56.48
25510;BME280;13413;52.336;21.200;2022-07-23T00:51:52;100442.48;;;25.24;56.49
25510;BME280;13413;52.336;21.200;2022-07-23T00:55:12;100440.94;;;25.15;56.57
25510;BME280;13413;52.336;21.200;2022-07-23T00:58:34;100441.20;;;25.03;56.81
25510;BME280;13413;52.336;21.200;2022-07-23T01:01:54;100437.77;;;24.99;56.86
25510;BME280;13413;52.336;21.200;2022-07-23T01:05:13;100442.88;;;25.04;56.80
25510;BME280;13413;52.336;21.200;2022-07-23T01:08:33;100437.89;;;25.05;56.80
25510;BME280;13413;52.336;21.200;2022-07-23T01:11:52;100443.96;;;25.03;56.77
25510;BME280;13413;52.336;21.200;2022-07-23T01:15:13;100443.95;;;24.99;56.87
25510;BME280;13413;52.336;21.200;2022-07-23T01:18:32;100444.09;;;24.91;56.98
25510;BME280;13413;52.336;21.200;2022-07-23T01:21:52;100443.45;;;24.91;56.99
25510;BME280;13413;52.336;21.200;2022-07-23T01:25:13;100445.95;;;24.95;56.98
25510;BME280;13413;52.336;21.200;2022-07-23T01:28:32;100441.77;;;24.89;57.03
25510;BME280;13413;52.336;21.200;2022-07-23T01:31:52;100442.47;;;24.82;57.10
25510;BME280;13413;52.336;21.200;2022-07-23T01:35:12;100437.40;;;24.75;57.20
25510;BME280;13413;52.336;21.200;2022-07-23T01:38:31;100438.66;;;24.63;57.28
25510;BME280;13413;52.336;21.200;2022-07-23T01:41:50;100443.45;;;24.67;57.52
25510;BME280;13413;52.336;21.200;2022-07-23T01:45:10;100442.89;;;24.63;57.62
25510;BME280;13413;52.336;21.200;2022-07-23T01:48:30;100444.38;;;24.56;57.74
25510;BME280;13413;52.336;21.200;2022-07-23T01:51:49;100440.35;;;24.53;57.90
25510;BME280;13413;52.336;21.200;2022-07-23T01:55:10;100439.59;;;24.52;57.75
25510;BME280;13413;52.336;21.200;2022-07-23T01:58:30;100436.89;;;24.40;57.98
25510;BME280;13413;52.336;21.200;2022-07-23T02:01:50;100428.56;;;24.35;57.95
25510;BME280;13413;52.336;21.200;2022-07-23T02:05:10;100431.25;;;24.39;58.00
25510;BME280;13413;52.336;21.200;2022-07-23T02:08:30;100435.16;;;24.41;58.03
25510;BME280;13413;52.336;21.200;2022-07-23T02:11:50;100430.09;;;24.36;58.10
25510;BME280;13413;52.336;21.200;2022-07-23T02:15:10;100429.38;;;24.34;58.18
25510;BME280;13413;52.336;21.200;2022-07-23T02:18:30;100425.14;;;24.34;58.26
25510;BME280;13413;52.336;21.200;2022-07-23T02:21:49;100419.98;;;24.29;58.25
25510;BME280;13413;52.336;21.200;2022-07-23T02:25:10;100423.84;;;24.22;58.42
25510;BME280;13413;52.336;21.200;2022-07-23T02:28:30;100426.58;;;24.17;58.42
25510;BME280;13413;52.336;21.200;2022-07-23T02:31:50;100422.82;;;24.16;58.59
25510;BME280;13413;52.336;21.200;2022-07-23T02:35:10;100424.55;;;24.15;58.58
25510;BME280;13413;52.336;21.200;2022-07-23T02:38:29;100429.00;;;24.09;58.61
25510;BME280;13413;52.336;21.200;2022-07-23T02:41:49;100431.84;;;24.06;58.79
25510;BME280;13413;52.336;21.200;2022-07-23T02:45:11;100425.74;;;24.09;58.74
25510;BME280;13413;52.336;21.200;2022-07-23T02:48:30;100421.08;;;24.06;58.91
25510;BME280;13413;52.336;21.200;2022-07-23T02:51:50;100417.13;;;24.00;58.91
25510;BME280;13413;52.336;21.200;2022-07-23T02:55:30;100415.10;;;23.96;59.04
25510;BME280;13413;52.336;21.200;2022-07-23T02:58:50;100414.83;;;23.97;59.07
25510;BME280;13413;52.336;21.200;2022-07-23T03:02:08;100419.11;;;23.96;59.02
25510;BME280;13413;52.336;21.200;2022-07-23T03:05:28;100420.45;;;23.94;59.10
25510;BME280;13413;52.336;21.200;2022-07-23T03:08:47;100416.63;;;23.97;59.14
25510;BME280;13413;52.336;21.200;2022-07-23T03:12:07;100419.71;;;23.95;59.16
25510;BME280;13413;52.336;21.200;2022-07-23T03:15:26;100414.30;;;23.98;59.20
25510;BME280;13413;52.336;21.200;2022-07-23T03:18:46;100418.00;;;24.01;59.21
25510;BME280;13413;52.336;21.200;2022-07-23T03:22:05;100420.55;;;23.98;59.23
25510;BME280;13413;52.336;21.200;2022-07-23T03:25:25;100417.30;;;23.90;59.13
25510;BME280;13413;52.336;21.200;2022-07-23T03:28:43;100416.73;;;23.80;59.29
25510;BME280;13413;52.336;21.200;2022-07-23T03:32:04;100418.03;;;23.78;59.46
25510;BME280;13413;52.336;21.200;2022-07-23T03:35:24;100415.45;;;23.82;59.42
25510;BME280;13413;52.336;21.200;2022-07-23T03:38:44;100417.45;;;23.81;59.41
25510;BME280;13413;52.336;21.200;2022-07-23T03:42:04;100418.23;;;23.78;59.49
25510;BME280;13413;52.336;21.200;2022-07-23T03:45:23;100414.02;;;23.82;59.35
25510;BME280;13413;52.336;21.200;2022-07-23T03:48:42;100414.14;;;23.73;59.59
25510;BME280;13413;52.336;21.200;2022-07-23T03:52:03;100425.36;;;23.74;59.80
25510;BME280;13413;52.336;21.200;2022-07-23T03:55:24;100429.16;;;23.83;59.97
25510;BME280;13413;52.336;21.200;2022-07-23T03:58:44;100431.54;;;23.91;59.66
25510;BME280;13413;52.336;21.200;2022-07-23T04:02:03;100431.55;;;24.00;59.62
25510;BME280;13413;52.336;21.200;2022-07-23T04:05:23;100433.87;;;24.07;59.29
25510;BME280;13413;52.336;21.200;2022-07-23T04:08:43;100437.48;;;24.20;59.29
25510;BME280;13413;52.336;21.200;2022-07-23T04:12:03;100440.72;;;24.24;59.04
25510;BME280;13413;52.336;21.200;2022-07-23T04:15:26;100442.09;;;24.30;58.95
25510;BME280;13413;52.336;21.200;2022-07-23T04:18:46;100432.73;;;24.34;58.89
25510;BME280;13413;52.336;21.200;2022-07-23T04:22:05;100431.60;;;24.33;58.88
25510;BME280;13413;52.336;21.200;2022-07-23T04:25:25;100430.36;;;24.37;58.94
25510;BME280;13413;52.336;21.200;2022-07-23T04:28:45;100435.66;;;24.45;58.78
25510;BME280;13413;52.336;21.200;2022-07-23T04:32:06;100431.90;;;24.54;58.79
25510;BME280;13413;52.336;21.200;2022-07-23T04:35:25;100432.15;;;24.64;58.66
25510;BME280;13413;52.336;21.200;2022-07-23T04:38:46;100428.36;;;24.65;58.35
25510;BME280;13413;52.336;21.200;2022-07-23T04:42:05;100432.67;;;24.74;58.29
25510;BME280;13413;52.336;21.200;2022-07-23T04:45:24;100432.80;;;24.91;58.26
25510;BME280;13413;52.336;21.200;2022-07-23T04:48:44;100437.17;;;25.05;57.98
25510;BME280;13413;52.336;21.200;2022-07-23T04:52:04;100429.58;;;25.07;57.94
25510;BME280;13413;52.336;21.200;2022-07-23T04:55:24;100431.70;;;25.11;57.69
25510;BME280;13413;52.336;21.200;2022-07-23T04:58:45;100436.76;;;25.18;57.82
25510;BME280;13413;52.336;21.200;2022-07-23T05:02:05;100433.42;;;25.36;57.58
25510;BME280;13413;52.336;21.200;2022-07-23T05:05:25;100434.94;;;25.36;57.56
25510;BME280;13413;52.336;21.200;2022-07-23T05:08:44;100431.52;;;25.52;57.51
25510;BME280;13413;52.336;21.200;2022-07-23T05:12:05;100432.56;;;25.70;57.08
25510;BME280;13413;52.336;21.200;2022-07-23T05:15:24;100436.19;;;25.85;56.53
25510;BME280;13413;52.336;21.200;2022-07-23T05:18:44;100437.36;;;25.97;56.51
25510;BME280;13413;52.336;21.200;2022-07-23T05:22:03;100439.46;;;26.08;56.12
25510;BME280;13413;52.336;21.200;2022-07-23T05:25:22;100445.05;;;26.10;55.83
25510;BME280;13413;52.336;21.200;2022-07-23T05:28:41;100446.19;;;26.14;55.84
25510;BME280;13413;52.336;21.200;2022-07-23T05:32:00;100446.02;;;26.24;55.85
25510;BME280;13413;52.336;21.200;2022-07-23T05:35:20;100445.15;;;26.31;55.24
25510;BME280;13413;52.336;21.200;2022-07-23T05:38:43;100447.86;;;26.32;55.46
25510;BME280;13413;52.336;21.200;2022-07-23T05:42:02;100441.77;;;26.46;55.53
25510;BME280;13413;52.336;21.200;2022-07-23T05:45:21;100440.33;;;26.52;55.11
25510;BME280;13413;52.336;21.200;2022-07-23T05:48:45;100433.22;;;26.58;55.01
25510;BME280;13413;52.336;21.200;2022-07-23T05:52:07;100436.80;;;26.71;54.73
25510;BME280;13413;52.336;21.200;2022-07-23T05:55:27;100430.16;;;26.72;54.47
25510;BME280;13413;52.336;21.200;2022-07-23T05:58:47;100427.27;;;26.74;54.41
25510;BME280;13413;52.336;21.200;2022-07-23T06:02:07;100427.99;;;26.84;54.34
25510;BME280;13413;52.336;21.200;2022-07-23T06:05:26;100431.13;;;26.90;54.29
25510;BME280;13413;52.336;21.200;2022-07-23T06:08:59;100426.36;;;27.11;54.10
25510;BME280;13413;52.336;21.200;2022-07-23T06:12:18;100428.78;;;27.39;54.29
25510;BME280;13413;52.336;21.200;2022-07-23T06:15:37;100432.20;;;27.62;53.61
25510;BME280;13413;52.336;21.200;2022-07-23T06:18:56;100430.83;;;27.64;53.48
25510;BME280;13413;52.336;21.200;2022-07-23T06:22:15;100427.21;;;27.66;53.27
25510;BME280;13413;52.336;21.200;2022-07-23T06:25:34;100425.70;;;27.65;53.03
25510;BME280;13413;52.336;21.200;2022-07-23T06:28:53;100429.16;;;27.68;52.87
25510;BME280;13413;52.336;21.200;2022-07-23T06:32:13;100422.63;;;27.73;52.59
25510;BME280;13413;52.336;21.200;2022-07-23T06:35:33;100423.58;;;27.86;52.58
25510;BME280;13413;52.336;21.200;2022-07-23T06:38:52;100424.11;;;27.93;52.12
25510;BME280;13413;52.336;21.200;2022-07-23T06:42:11;100427.47;;;28.00;51.91
25510;BME280;13413;52.336;21.200;2022-07-23T06:45:31;100431.85;;;28.09;51.95
25510;BME280;13413;52.336;21.200;2022-07-23T06:52:10;100417.95;;;28.56;51.17
25510;BME280;13413;52.336;21.200;2022-07-23T06:55:30;100420.52;;;28.59;51.00
25510;BME280;13413;52.336;21.200;2022-07-23T06:58:51;100422.76;;;28.69;50.79
25510;BME280;13413;52.336;21.200;2022-07-23T07:02:30;100426.05;;;28.80;50.62
25510;BME280;13413;52.336;21.200;2022-07-23T07:05:49;100425.37;;;28.87;50.18
25510;BME280;13413;52.336;21.200;2022-07-23T07:09:09;100418.90;;;28.88;49.79
25510;BME280;13413;52.336;21.200;2022-07-23T07:12:28;100417.09;;;28.99;49.57
25510;BME280;13413;52.336;21.200;2022-07-23T07:15:48;100412.64;;;29.08;49.01
25510;BME280;13413;52.336;21.200;2022-07-23T07:19:07;100409.81;;;29.18;49.37
25510;BME280;13413;52.336;21.200;2022-07-23T07:22:26;100408.29;;;29.36;48.56
25510;BME280;13413;52.336;21.200;2022-07-23T07:25:47;100409.61;;;29.36;48.36
25510;BME280;13413;52.336;21.200;2022-07-23T07:29:06;100410.91;;;29.46;48.31
25510;BME280;13413;52.336;21.200;2022-07-23T07:32:26;100415.59;;;29.48;48.16
25510;BME280;13413;52.336;21.200;2022-07-23T07:35:47;100415.14;;;29.55;48.00
25510;BME280;13413;52.336;21.200;2022-07-23T07:39:07;100410.34;;;29.69;47.94
25510;BME280;13413;52.336;21.200;2022-07-23T07:42:27;100408.73;;;29.86;47.44
25510;BME280;13413;52.336;21.200;2022-07-23T07:45:47;100407.10;;;29.96;47.24
25510;BME280;13413;52.336;21.200;2022-07-23T07:49:06;100407.53;;;29.95;46.73
25510;BME280;13413;52.336;21.200;2022-07-23T07:52:26;100405.67;;;29.98;46.61
25510;BME280;13413;52.336;21.200;2022-07-23T07:55:46;100406.42;;;30.07;46.56
25510;BME280;13413;52.336;21.200;2022-07-23T07:59:06;100405.27;;;30.15;46.52
25510;BME280;13413;52.336;21.200;2022-07-23T08:02:26;100399.88;;;30.44;45.84
25510;BME280;13413;52.336;21.200;2022-07-23T08:05:45;100400.13;;;30.51;45.30
25510;BME280;13413;52.336;21.200;2022-07-23T08:09:05;100404.33;;;30.60;44.66
25510;BME280;13413;52.336;21.200;2022-07-23T08:12:24;100403.81;;;30.63;44.42
25510;BME280;13413;52.336;21.200;2022-07-23T08:15:45;100396.52;;;30.72;44.43
25510;BME280;13413;52.336;21.200;2022-07-23T08:19:04;100402.70;;;30.91;44.16
25510;BME280;13413;52.336;21.200;2022-07-23T08:22:23;100404.50;;;31.06;43.33
25510;BME280;13413;52.336;21.200;2022-07-23T08:25:43;100403.74;;;31.21;43.05
25510;BME280;13413;52.336;21.200;2022-07-23T08:29:02;100405.74;;;31.31;42.81
25510;BME280;13413;52.336;21.200;2022-07-23T08:32:21;100410.05;;;31.42;42.61
25510;BME280;13413;52.336;21.200;2022-07-23T08:35:42;100410.63;;;31.51;42.37
25510;BME280;13413;52.336;21.200;2022-07-23T08:39:02;100412.45;;;31.60;42.25
25510;BME280;13413;52.336;21.200;2022-07-23T08:42:22;100409.84;;;31.74;42.25
25510;BME280;13413;52.336;21.200;2022-07-23T08:45:43;100409.58;;;31.86;41.94
25510;BME280;13413;52.336;21.200;2022-07-23T08:49:04;100405.06;;;31.98;41.46
25510;BME280;13413;52.336;21.200;2022-07-23T08:52:24;100403.08;;;32.04;41.52
25510;BME280;13413;52.336;21.200;2022-07-23T08:55:46;100407.64;;;32.11;40.75
25510;BME280;13413;52.336;21.200;2022-07-23T08:59:06;100402.20;;;32.21;40.59
25510;BME280;13413;52.336;21.200;2022-07-23T09:02:26;100408.98;;;32.28;40.21
25510;BME280;13413;52.336;21.200;2022-07-23T09:05:48;100406.15;;;32.25;39.54
25510;BME280;13413;52.336;21.200;2022-07-23T09:09:19;100403.14;;;32.35;39.11
25510;BME280;13413;52.336;21.200;2022-07-23T09:12:40;100404.90;;;32.40;38.25
25510;BME280;13413;52.336;21.200;2022-07-23T09:16:01;100401.75;;;32.46;37.81
25510;BME280;13413;52.336;21.200;2022-07-23T09:19:28;100404.49;;;32.59;37.21
25510;BME280;13413;52.336;21.200;2022-07-23T09:22:49;100402.15;;;32.85;37.39
25510;BME280;13413;52.336;21.200;2022-07-23T09:26:24;100393.98;;;33.04;37.18
25510;BME280;13413;52.336;21.200;2022-07-23T09:29:56;100388.73;;;33.10;36.68
25510;BME280;13413;52.336;21.200;2022-07-23T09:33:16;100390.94;;;33.13;36.04
25510;BME280;13413;52.336;21.200;2022-07-23T09:36:36;100389.50;;;33.30;35.89
25510;BME280;13413;52.336;21.200;2022-07-23T09:40:05;100390.21;;;33.61;35.91
25510;BME280;13413;52.336;21.200;2022-07-23T09:43:28;100394.05;;;33.91;35.60
25510;BME280;13413;52.336;21.200;2022-07-23T09:46:48;100398.40;;;34.05;35.79
25510;BME280;13413;52.336;21.200;2022-07-23T09:50:11;100387.53;;;34.26;34.89
25510;BME280;13413;52.336;21.200;2022-07-23T09:53:31;100384.41;;;34.11;34.32
25510;BME280;13413;52.336;21.200;2022-07-23T09:56:51;100384.05;;;34.06;34.14
25510;BME280;13413;52.336;21.200;2022-07-23T10:00:12;100378.47;;;34.19;33.98
25510;BME280;13413;52.336;21.200;2022-07-23T10:03:31;100372.57;;;34.45;34.00
25510;BME280;13413;52.336;21.200;2022-07-23T10:06:54;100367.71;;;34.58;33.91
25510;BME280;13413;52.336;21.200;2022-07-23T10:10:16;100364.20;;;34.91;33.51
25510;BME280;13413;52.336;21.200;2022-07-23T10:13:36;100366.41;;;35.17;33.68
25510;BME280;13413;52.336;21.200;2022-07-23T10:16:58;100363.39;;;35.45;32.95
25510;BME280;13413;52.336;21.200;2022-07-23T10:20:21;100365.19;;;35.64;32.71
25510;BME280;13413;52.336;21.200;2022-07-23T10:23:45;100364.16;;;35.49;32.60
25510;BME280;13413;52.336;21.200;2022-07-23T10:27:12;100365.21;;;35.57;32.69
25510;BME280;13413;52.336;21.200;2022-07-23T10:30:43;100363.95;;;35.65;32.34
25510;BME280;13413;52.336;21.200;2022-07-23T10:34:11;100359.95;;;35.80;32.33
25510;BME280;13413;52.336;21.200;2022-07-23T10:37:45;100360.40;;;36.17;32.13
25510;BME280;13413;52.336;21.200;2022-07-23T10:41:07;100358.31;;;35.92;31.39
25510;BME280;13413;52.336;21.200;2022-07-23T10:44:39;100356.73;;;35.70;31.83
25510;BME280;13413;52.336;21.200;2022-07-23T10:48:13;100359.38;;;35.77;31.90
25510;BME280;13413;52.336;21.200;2022-07-23T10:51:32;100357.98;;;35.75;32.15
25510;BME280;13413;52.336;21.200;2022-07-23T10:54:52;100358.45;;;35.82;31.86
25510;BME280;13413;52.336;21.200;2022-07-23T10:58:16;100360.20;;;35.66;31.91
25510;BME280;13413;52.336;21.200;2022-07-23T11:01:38;100363.02;;;35.73;31.80
25510;BME280;13413;52.336;21.200;2022-07-23T11:05:01;100364.27;;;35.91;31.85
25510;BME280;13413;52.336;21.200;2022-07-23T11:08:22;100358.81;;;36.03;31.86
25510;BME280;13413;52.336;21.200;2022-07-23T11:11:42;100351.31;;;36.47;32.01
25510;BME280;13413;52.336;21.200;2022-07-23T11:15:08;100350.64;;;36.72;31.65
25510;BME280;13413;52.336;21.200;2022-07-23T11:19:03;100346.71;;;36.76;31.59
25510;BME280;13413;52.336;21.200;2022-07-23T11:22:39;100345.11;;;36.96;31.56
25510;BME280;13413;52.336;21.200;2022-07-23T11:25:58;100348.35;;;37.36;31.08
25510;BME280;13413;52.336;21.200;2022-07-23T11:29:40;100345.42;;;37.27;30.68
25510;BME280;13413;52.336;21.200;2022-07-23T11:33:20;100347.82;;;37.25;31.01
25510;BME280;13413;52.336;21.200;2022-07-23T11:36:52;100350.13;;;37.43;30.47
25510;BME280;13413;52.336;21.200;2022-07-23T11:40:14;100350.38;;;37.77;30.59
25510;BME280;13413;52.336;21.200;2022-07-23T11:43:38;100348.11;;;37.90;29.81
25510;BME280;13413;52.336;21.200;2022-07-23T11:46:58;100351.27;;;37.62;29.78
25510;BME280;13413;52.336;21.200;2022-07-23T11:50:18;100341.48;;;37.47;29.84
25510;BME280;13413;52.336;21.200;2022-07-23T11:53:38;100344.26;;;37.40;29.34
25510;BME280;13413;52.336;21.200;2022-07-23T11:56:59;100338.29;;;37.12;29.78
25510;BME280;13413;52.336;21.200;2022-07-23T12:00:23;100337.08;;;37.22;30.04
25510;BME280;13413;52.336;21.200;2022-07-23T12:03:51;100334.33;;;37.28;29.91
25510;BME280;13413;52.336;21.200;2022-07-23T12:07:31;100331.89;;;37.44;29.98
25510;BME280;13413;52.336;21.200;2022-07-23T12:10:51;100333.15;;;37.75;30.10
25510;BME280;13413;52.336;21.200;2022-07-23T12:14:12;100326.44;;;37.38;29.44
25510;BME280;13413;52.336;21.200;2022-07-23T12:17:33;100318.08;;;37.09;29.98
25510;BME280;13413;52.336;21.200;2022-07-23T12:20:54;100311.91;;;36.71;30.05
25510;BME280;13413;52.336;21.200;2022-07-23T12:24:14;100310.06;;;36.44;30.30
25510;BME280;13413;52.336;21.200;2022-07-23T12:27:33;100300.48;;;36.12;30.40
25510;BME280;13413;52.336;21.200;2022-07-23T12:30:55;100290.71;;;36.03;30.99
25510;BME280;13413;52.336;21.200;2022-07-23T12:34:17;100293.15;;;36.27;30.91
25510;BME280;13413;52.336;21.200;2022-07-23T12:37:39;100287.66;;;36.47;30.92
25510;BME280;13413;52.336;21.200;2022-07-23T12:41:00;100285.86;;;36.56;30.69
25510;BME280;13413;52.336;21.200;2022-07-23T12:44:20;100290.70;;;36.43;30.66
25510;BME280;13413;52.336;21.200;2022-07-23T12:47:56;100280.18;;;36.22;30.32
25510;BME280;13413;52.336;21.200;2022-07-23T12:51:18;100280.02;;;36.05;30.86
25510;BME280;13413;52.336;21.200;2022-07-23T12:54:39;100270.98;;;35.78;30.86
25510;BME280;13413;52.336;21.200;2022-07-23T12:58:07;100270.70;;;35.66;31.05
25510;BME280;13413;52.336;21.200;2022-07-23T13:01:28;100261.70;;;35.89;31.17
25510;BME280;13413;52.336;21.200;2022-07-23T13:04:48;100261.84;;;36.18;31.02
25510;BME280;13413;52.336;21.200;2022-07-23T13:08:07;100259.00;;;36.13;30.85
25510;BME280;13413;52.336;21.200;2022-07-23T13:11:26;100254.45;;;36.19;31.11
25510;BME280;13413;52.336;21.200;2022-07-23T13:14:46;100248.33;;;36.41;31.02
25510;BME280;13413;52.336;21.200;2022-07-23T13:18:05;100244.55;;;36.60;30.96
25510;BME280;13413;52.336;21.200;2022-07-23T13:21:24;100239.71;;;36.71;30.77
25510;BME280;13413;52.336;21.200;2022-07-23T13:24:44;100241.18;;;36.73;30.67
25510;BME280;13413;52.336;21.200;2022-07-23T13:28:04;100240.13;;;36.75;30.57
25510;BME280;13413;52.336;21.200;2022-07-23T13:31:23;100237.05;;;36.66;30.55
25510;BME280;13413;52.336;21.200;2022-07-23T13:34:42;100239.80;;;36.60;30.73
25510;BME280;13413;52.336;21.200;2022-07-23T13:38:02;100240.72;;;36.49;30.74
25510;BME280;13413;52.336;21.200;2022-07-23T13:41:21;100240.74;;;36.38;30.74
25510;BME280;13413;52.336;21.200;2022-07-23T13:44:40;100244.20;;;36.36;30.90
25510;BME280;13413;52.336;21.200;2022-07-23T13:48:00;100246.10;;;36.33;30.85
25510;BME280;13413;52.336;21.200;2022-07-23T13:51:20;100241.30;;;36.28;30.98
25510;BME280;13413;52.336;21.200;2022-07-23T13:54:40;100237.23;;;36.26;30.88
25510;BME280;13413;52.336;21.200;2022-07-23T13:58:00;100236.25;;;36.25;30.93
25510;BME280;13413;52.336;21.200;2022-07-23T14:01:20;100242.86;;;36.25;31.19
25510;BME280;13413;52.336;21.200;2022-07-23T14:04:39;100241.05;;;36.14;30.99
25510;BME280;13413;52.336;21.200;2022-07-23T14:07:59;100243.50;;;36.03;31.17
25510;BME280;13413;52.336;21.200;2022-07-23T14:11:19;100243.90;;;35.90;31.03
25510;BME280;13413;52.336;21.200;2022-07-23T14:14:38;100242.85;;;35.86;31.11
25510;BME280;13413;52.336;21.200;2022-07-23T14:17:59;100231.64;;;35.86;31.12
25510;BME280;13413;52.336;21.200;2022-07-23T14:21:19;100230.82;;;35.85;31.20
25510;BME280;13413;52.336;21.200;2022-07-23T14:24:38;100231.36;;;35.74;31.54
25510;BME280;13413;52.336;21.200;2022-07-23T14:27:58;100223.73;;;35.65;31.45
25510;BME280;13413;52.336;21.200;2022-07-23T14:31:19;100225.91;;;35.55;31.56
25510;BME280;13413;52.336;21.200;2022-07-23T14:34:39;100230.71;;;35.43;31.63
25510;BME280;13413;52.336;21.200;2022-07-23T14:37:58;100242.48;;;35.29;31.71
25510;BME280;13413;52.336;21.200;2022-07-23T14:41:18;100251.77;;;35.17;31.93
25510;BME280;13413;52.336;21.200;2022-07-23T14:44:38;100255.73;;;35.10;32.18
25510;BME280;13413;52.336;21.200;2022-07-23T14:47:58;100264.98;;;34.97;32.54
25510;BME280;13413;52.336;21.200;2022-07-23T14:51:19;100254.81;;;34.93;32.61
25510;BME280;13413;52.336;21.200;2022-07-23T14:54:39;100248.07;;;34.89;32.76
25510;BME280;13413;52.336;21.200;2022-07-23T14:57:59;100244.29;;;34.75;32.88
25510;BME280;13413;52.336;21.200;2022-07-23T15:01:18;100243.73;;;34.66;32.85
25510;BME280;13413;52.336;21.200;2022-07-23T15:04:38;100256.36;;;34.57;32.96
25510;BME280;13413;52.336;21.200;2022-07-23T15:07:57;100324.63;;;34.02;33.69
25510;BME280;13413;52.336;21.200;2022-07-23T15:11:18;100321.70;;;32.74;35.88
25510;BME280;13413;52.336;21.200;2022-07-23T15:14:38;100339.27;;;31.70;37.71
25510;BME280;13413;52.336;21.200;2022-07-23T15:17:58;100361.92;;;31.09;39.50
25510;BME280;13413;52.336;21.200;2022-07-23T15:38:40;100494.80;;;26.40;55.76
25510;BME280;13413;52.336;21.200;2022-07-23T15:41:59;100470.84;;;26.41;56.02
25510;BME280;13413;52.336;21.200;2022-07-23T15:45:19;100475.90;;;26.18;56.77
25510;BME280;13413;52.336;21.200;2022-07-23T15:48:39;100483.20;;;25.95;57.47
25510;BME280;13413;52.336;21.200;2022-07-23T15:51:59;100477.84;;;25.79;58.26
25510;BME280;13413;52.336;21.200;2022-07-23T15:55:20;100472.95;;;25.69;58.74
25510;BME280;13413;52.336;21.200;2022-07-23T15:58:42;100472.52;;;25.63;59.00
25510;BME280;13413;52.336;21.200;2022-07-23T16:02:01;100484.74;;;25.59;59.29
25510;BME280;13413;52.336;21.200;2022-07-23T16:05:20;100490.23;;;25.59;59.35
25510;BME280;13413;52.336;21.200;2022-07-23T16:08:39;100496.31;;;25.57;59.23
25510;BME280;13413;52.336;21.200;2022-07-23T16:11:58;100504.33;;;25.52;59.55
25510;BME280;13413;52.336;21.200;2022-07-23T16:15:18;100505.23;;;25.46;59.41
25510;BME280;13413;52.336;21.200;2022-07-23T16:18:38;100507.30;;;25.42;59.59
25510;BME280;13413;52.336;21.200;2022-07-23T16:21:56;100509.18;;;25.35;59.56
25510;BME280;13413;52.336;21.200;2022-07-23T16:29:52;100512.83;;;25.37;59.66
25510;BME280;13413;52.336;21.200;2022-07-23T16:33:13;100511.13;;;25.33;59.99
25510;BME280;13413;52.336;21.200;2022-07-23T16:36:32;100501.08;;;25.28;59.81
25510;BME280;13413;52.336;21.200;2022-07-23T16:39:53;100498.25;;;25.24;59.95
25510;BME280;13413;52.336;21.200;2022-07-23T16:43:13;100495.19;;;25.17;60.01
25510;BME280;13413;52.336;21.200;2022-07-23T16:46:32;100487.27;;;25.17;60.25
25510;BME280;13413;52.336;21.200;2022-07-23T16:49:51;100477.22;;;25.19;60.38
25510;BME280;13413;52.336;21.200;2022-07-23T16:53:12;100468.55;;;25.28;60.40
25510;BME280;13413;52.336;21.200;2022-07-23T16:56:30;100455.58;;;25.37;60.37
25510;BME280;13413;52.336;21.200;2022-07-23T16:59:53;100448.40;;;25.43;60.13
25510;BME280;13413;52.336;21.200;2022-07-23T17:03:13;100425.92;;;25.41;60.36
25510;BME280;13413;52.336;21.200;2022-07-23T17:06:33;100401.42;;;25.46;60.45
25510;BME280;13413;52.336;21.200;2022-07-23T17:09:55;100391.74;;;25.45;60.64
25510;BME280;13413;52.336;21.200;2022-07-23T17:13:15;100384.41;;;25.44;60.69
25510;BME280;13413;52.336;21.200;2022-07-23T17:16:35;100377.73;;;25.48;60.65
25510;BME280;13413;52.336;21.200;2022-07-23T17:23:13;100358.88;;;25.47;60.78
25510;BME280;13413;52.336;21.200;2022-07-23T17:26:33;100338.95;;;25.44;60.92
25510;BME280;13413;52.336;21.200;2022-07-23T17:29:54;100324.60;;;25.45;61.11
25510;BME280;13413;52.336;21.200;2022-07-23T17:33:14;100315.75;;;25.38;61.00
25510;BME280;13413;52.336;21.200;2022-07-23T17:36:32;100299.96;;;25.38;60.91
25510;BME280;13413;52.336;21.200;2022-07-23T17:39:52;100284.86;;;25.40;61.03
25510;BME280;13413;52.336;21.200;2022-07-23T17:43:12;100275.95;;;25.33;60.84
25510;BME280;13413;52.336;21.200;2022-07-23T17:46:32;100270.48;;;25.28;60.87